Time;durP1;ratioP1;P1;durP2;ratioP2;P2;SDS_P1;SDS_P2;PMS_P1;PMS_P2;Temp;Humidity;BMP_temperature;BMP_pressure;BME280_temperature;BME280_humidity;BME280_pressure;Samples;Min_cycle;Max_cycle;Signal;HPM_P1;HPM_P2
2023/09/10 00:00:38;;;;;;;3.28;2.35;;;;;;;22.46;86.15;100938.28;5031438;28;20030;-58
2023/09/10 00:03:05;;;;;;;5.00;2.45;;;;;;;22.35;86.83;100951.47;5030416;28;20037;-59
2023/09/10 00:05:32;;;;;;;3.72;2.47;;;;;;;22.38;86.76;100945.91;5011956;28;20104;-57
2023/09/10 00:08:00;;;;;;;5.15;2.88;;;;;;;22.34;86.05;100944.44;5012156;28;20044;-58
2023/09/10 00:10:26;;;;;;;5.68;3.10;;;;;;;22.31;86.92;100945.28;5023910;28;20083;-57
2023/09/10 00:12:52;;;;;;;5.43;3.15;;;;;;;22.32;86.44;100947.63;5030454;28;20025;-58
2023/09/10 00:15:17;;;;;;;5.82;2.80;;;;;;;22.18;87.06;100953.41;5028910;28;20120;-57
2023/09/10 00:17:43;;;;;;;6.53;2.63;;;;;;;22.20;87.02;100951.03;5025799;28;20036;-58
2023/09/10 00:20:10;;;;;;;5.25;2.80;;;;;;;22.17;87.38;100948.34;5012753;28;20061;-57
2023/09/10 00:22:37;;;;;;;4.35;2.53;;;;;;;22.19;87.38;100945.97;5033028;28;20040;-58
2023/09/10 00:25:04;;;;;;;7.68;2.88;;;;;;;22.18;86.68;100952.66;5026677;28;20113;-58
2023/09/10 00:27:30;;;;;;;4.72;2.90;;;;;;;22.11;87.62;100953.59;5028397;28;20112;-56
2023/09/10 00:29:55;;;;;;;5.60;3.00;;;;;;;22.23;87.61;100954.88;5032443;28;20116;-58
2023/09/10 00:32:22;;;;;;;4.40;2.42;;;;;;;22.19;86.79;100954.19;5027920;28;20392;-58
2023/09/10 00:34:47;;;;;;;7.68;3.30;;;;;;;22.13;86.79;100948.44;5010239;28;20024;-58
2023/09/10 00:37:14;;;;;;;6.60;3.08;;;;;;;22.06;87.23;100947.84;5012183;28;20125;-58
2023/09/10 00:39:40;;;;;;;6.20;3.50;;;;;;;22.10;87.77;100963.03;5013241;28;20037;-57
2023/09/10 00:42:06;;;;;;;6.30;3.95;;;;;;;22.09;87.12;100964.22;5026383;28;20076;-58
2023/09/10 00:44:31;;;;;;;5.75;3.60;;;;;;;22.05;87.43;100957.25;5009483;28;20368;-57
2023/09/10 00:46:57;;;;;;;6.72;3.58;;;;;;;22.08;87.49;100961.91;5022415;28;20102;-55
2023/09/10 00:49:22;;;;;;;6.50;3.40;;;;;;;21.90;88.24;100965.03;5026642;28;20029;-57
2023/09/10 00:51:49;;;;;;;7.00;3.67;;;;;;;21.95;88.45;100964.50;5019894;28;20037;-57
2023/09/10 00:54:16;;;;;;;5.82;3.55;;;;;;;21.97;88.21;100950.38;5014759;28;20053;-58
2023/09/10 00:56:42;;;;;;;6.30;3.38;;;;;;;21.97;88.53;100958.63;5021474;28;20017;-58
2023/09/10 00:59:08;;;;;;;6.28;3.15;;;;;;;21.99;87.86;100965.22;5017901;28;20030;-57
2023/09/10 01:01:35;;;;;;;6.20;3.58;;;;;;;21.99;88.32;100948.00;5010424;28;20036;-58
2023/09/10 01:04:21;;;;;;;4.28;2.55;;;;;;;21.88;89.22;100952.91;5005244;28;20610;-55
2023/09/10 01:06:46;;;;;;;6.68;3.38;;;;;;;21.89;89.42;100957.22;4949308;29;20043;-58
2023/09/10 01:09:12;;;;;;;7.43;3.33;;;;;;;21.92;89.08;100962.63;4949656;28;20050;-58
2023/09/10 01:11:58;;;;;;;6.45;3.65;;;;;;;21.98;88.66;100962.91;4948660;29;20239;-55
2023/09/10 01:14:45;;;;;;;9.13;4.15;;;;;;;21.85;88.60;100964.75;4933712;29;20764;-56
2023/09/10 01:17:35;;;;;;;6.03;3.30;;;;;;;21.90;88.20;100959.53;4936682;28;20565;-58
2023/09/10 01:20:38;;;;;;;6.93;3.42;;;;;;;21.79;89.48;100945.25;4945829;28;20039;-58
2023/09/10 01:23:10;;;;;;;7.35;3.60;;;;;;;21.85;89.20;100951.03;4943270;28;20153;-56
2023/09/10 01:25:35;;;;;;;;;;;;;;;21.82;89.34;100960.88;4950000;28;20043;-57
2023/09/10 01:28:04;;;;;;;5.85;3.70;;;;;;;21.83;89.28;100958.91;4949400;28;19914;-55
2023/09/10 01:30:31;;;;;;;9.32;4.20;;;;;;;21.84;89.34;100957.69;4949609;28;20039;-56
2023/09/10 01:33:01;;;;;;;7.90;3.63;;;;;;;21.86;89.00;100960.78;4945650;29;20051;-58
2023/09/10 01:35:37;;;;;;;7.20;4.10;;;;;;;21.88;89.39;100958.41;4948346;29;20038;-58
2023/09/10 01:38:33;;;;;;;7.25;4.43;;;;;;;21.88;89.63;100956.44;4942216;29;20043;-55
2023/09/10 01:41:06;;;;;;;8.85;4.50;;;;;;;21.90;89.69;100964.25;4947112;28;21610;-58
2023/09/10 01:43:33;;;;;;;11.13;4.93;;;;;;;21.87;90.01;100954.13;4969514;28;20120;-55
2023/09/10 01:45:58;;;;;;;9.88;4.50;;;;;;;21.86;89.67;100958.84;5021443;28;20136;-55
2023/09/10 01:48:26;;;;;;;9.30;4.78;;;;;;;21.83;89.79;100961.66;5000715;28;20496;-58
2023/09/10 01:50:53;;;;;;;8.70;4.78;;;;;;;21.80;90.42;100962.47;5003478;28;20036;-58
2023/09/10 01:53:18;;;;;;;10.55;5.20;;;;;;;21.75;91.10;100965.72;5021429;28;20104;-58
2023/09/10 01:55:44;;;;;;;9.00;4.93;;;;;;;21.78;90.68;100962.09;5019820;28;20445;-58
2023/09/10 01:58:14;;;;;;;11.23;5.28;;;;;;;21.76;90.66;100959.00;4996639;28;20464;-58
2023/09/10 02:00:41;;;;;;;9.48;5.53;;;;;;;21.74;91.50;100956.69;5021370;28;20032;-57
2023/09/10 02:03:07;;;;;;;9.32;5.30;;;;;;;21.73;91.26;100957.91;5016056;28;20037;-56
2023/09/10 02:05:32;;;;;;;13.40;6.15;;;;;;;21.73;91.17;100949.69;5016987;28;20068;-57
2023/09/10 02:07:58;;;;;;;12.82;6.15;;;;;;;21.76;91.71;100964.50;5009990;28;20084;-57
2023/09/10 02:10:23;;;;;;;10.93;5.55;;;;;;;21.77;90.96;100963.31;5006047;28;20034;-57
2023/09/10 02:12:49;;;;;;;11.07;5.88;;;;;;;21.71;90.53;100967.75;5021917;28;20034;-54
2023/09/10 02:15:17;;;;;;;10.68;5.70;;;;;;;21.70;91.07;100963.47;5035987;22;20041;-68
2023/09/10 02:17:42;;;;;;;12.50;5.03;;;;;;;21.66;90.86;100969.00;5044143;28;20038;-68
2023/09/10 02:20:09;;;;;;;10.90;5.43;;;;;;;21.63;90.94;100975.34;5036235;28;20041;-64
2023/09/10 02:22:39;;;;;;;11.23;4.80;;;;;;;21.67;91.13;100972.53;5023288;28;20138;-68
2023/09/10 02:25:25;;;;;;;10.23;5.53;;;;;;;21.64;91.22;100973.38;5029585;28;20039;-67
2023/09/10 02:27:51;;;;;;;10.25;6.00;;;;;;;21.71;90.32;100978.72;4946329;29;20078;-68
2023/09/10 02:30:16;;;;;;;10.82;5.50;;;;;;;21.67;91.18;100967.03;4947012;29;20047;-67
2023/09/10 02:32:42;;;;;;;7.90;4.93;;;;;;;21.67;90.40;100978.78;4941857;29;20171;-67
2023/09/10 02:35:08;;;;;;;11.05;5.32;;;;;;;21.70;90.77;100972.44;4915223;29;20098;-68
2023/09/10 02:37:33;;;;;;;10.90;5.65;;;;;;;21.67;90.58;100969.78;4947461;29;20051;-69
2023/09/10 02:39:59;;;;;;;13.32;6.32;;;;;;;21.69;90.65;100970.91;4946913;29;20051;-67
2023/09/10 02:42:24;;;;;;;11.50;5.95;;;;;;;21.65;91.19;100972.94;4946272;29;20035;-68
2023/09/10 02:44:49;;;;;;;10.27;5.82;;;;;;;21.58;91.40;100977.81;4947543;29;20048;-68
2023/09/10 02:47:15;;;;;;;13.50;6.28;;;;;;;21.55;91.50;100977.44;4930469;29;20035;-67
2023/09/10 02:49:40;;;;;;;11.80;5.78;;;;;;;21.55;91.89;100974.72;4947994;29;20109;-67
2023/09/10 02:52:06;;;;;;;12.65;6.22;;;;;;;21.53;91.32;100974.34;4943585;29;20279;-68
2023/09/10 02:54:34;;;;;;;13.07;6.10;;;;;;;21.43;92.35;100975.31;4949561;28;20046;-68
2023/09/10 02:56:59;;;;;;;10.05;5.88;;;;;;;21.41;92.58;100974.19;4947192;29;20055;-68
2023/09/10 02:59:27;;;;;;;13.13;6.68;;;;;;;21.42;92.85;100970.28;4950701;29;20043;-68
2023/09/10 03:01:53;;;;;;;15.52;6.10;;;;;;;21.39;92.76;100974.63;4950380;29;20035;-68
2023/09/10 03:04:20;;;;;;;11.57;5.82;;;;;;;21.29;92.41;100981.06;4962261;28;20033;-68
2023/09/10 03:06:47;;;;;;;11.57;6.13;;;;;;;21.28;91.98;100985.00;5032457;28;20347;-67
2023/09/10 03:09:14;;;;;;;8.50;5.53;;;;;;;21.29;92.02;100986.56;5032598;28;20550;-68
2023/09/10 03:11:42;;;;;;;10.40;5.43;;;;;;;21.29;91.45;100980.31;5030903;28;20063;-66
2023/09/10 03:14:08;;;;;;;11.65;5.53;;;;;;;21.25;91.57;100974.88;5049816;28;20437;-67
2023/09/10 03:16:35;;;;;;;10.77;5.65;;;;;;;21.17;92.12;100984.44;5030960;28;20429;-67
2023/09/10 03:19:03;;;;;;;12.73;6.55;;;;;;;21.18;92.51;100979.72;5033054;28;20049;-67
2023/09/10 03:21:28;;;;;;;9.70;5.32;;;;;;;21.16;92.57;100969.19;5043045;28;21242;-66
2023/09/10 03:23:55;;;;;;;11.68;6.35;;;;;;;21.13;92.39;100970.03;5029471;28;20044;-65
2023/09/10 03:26:21;;;;;;;9.05;5.22;;;;;;;21.16;92.04;100976.63;5032666;28;20033;-68
2023/09/10 03:28:46;;;;;;;10.18;5.25;;;;;;;21.13;92.04;100977.47;5030295;28;20035;-68
2023/09/10 03:31:12;;;;;;;11.00;5.32;;;;;;;21.08;91.41;100983.44;5048540;28;20681;-67
2023/09/10 03:33:38;;;;;;;10.82;5.50;;;;;;;20.90;92.48;100964.53;5027855;28;20370;-68
2023/09/10 03:36:03;;;;;;;10.45;4.90;;;;;;;20.90;92.77;100964.53;5028895;28;20437;-68
2023/09/10 03:38:29;;;;;;;10.48;5.00;;;;;;;20.92;92.05;100966.84;5026524;28;20812;-68
2023/09/10 03:40:55;;;;;;;10.25;5.68;;;;;;;20.85;91.93;100959.50;5048625;28;20074;-68
2023/09/10 03:43:20;;;;;;;9.20;4.88;;;;;;;20.75;92.14;100952.25;5037080;28;20612;-66
2023/09/10 03:45:46;;;;;;;10.25;5.47;;;;;;;20.71;92.72;100956.25;5031046;28;20492;-68
2023/09/10 03:48:12;;;;;;;8.15;4.50;;;;;;;20.71;92.56;100950.78;5024850;28;20124;-68
2023/09/10 03:50:38;;;;;;;10.95;5.15;;;;;;;20.80;92.62;100943.56;5027756;28;20036;-68
2023/09/10 03:53:04;;;;;;;10.88;5.00;;;;;;;20.68;92.35;100949.63;5047218;28;20033;-68
2023/09/10 03:55:30;;;;;;;10.07;4.47;;;;;;;20.66;92.48;100958.28;5045793;28;20031;-68
2023/09/10 03:57:55;;;;;;;7.65;4.60;;;;;;;20.75;92.30;100960.47;5028038;28;20033;-68
2023/09/10 04:00:21;;;;;;;7.90;4.32;;;;;;;20.70;91.56;100963.69;5049683;28;20527;-67
2023/09/10 04:02:47;;;;;;;9.30;4.90;;;;;;;20.72;91.52;100964.03;5029511;28;20565;-68
2023/09/10 04:05:12;;;;;;;7.45;4.50;;;;;;;20.71;91.52;100967.22;5047126;28;20103;-68
2023/09/10 04:07:42;;;;;;;8.63;4.97;;;;;;;20.74;91.00;100971.84;5034833;28;20469;-67
2023/09/10 04:10:07;;;;;;;10.52;5.35;;;;;;;20.73;91.04;100968.31;5048013;28;20025;-66
2023/09/10 04:12:34;;;;;;;10.27;5.35;;;;;;;20.71;90.99;100964.47;5032295;28;20043;-68
2023/09/10 04:14:59;;;;;;;9.65;4.95;;;;;;;20.68;91.13;100971.53;5033877;28;20021;-68
2023/09/10 04:17:28;;;;;;;10.40;5.45;;;;;;;20.70;91.34;100985.59;5032174;28;20672;-68
2023/09/10 04:19:57;;;;;;;11.27;5.78;;;;;;;20.75;91.39;100981.63;5011752;28;20417;-66
2023/09/10 04:22:26;;;;;;;10.65;5.30;;;;;;;20.73;91.36;100981.25;5035772;28;20033;-68
2023/09/10 04:24:51;;;;;;;10.85;5.72;;;;;;;20.77;91.64;100979.97;5026817;28;20052;-67
2023/09/10 04:27:17;;;;;;;12.32;6.53;;;;;;;20.82;91.70;100982.28;5039633;28;20060;-67
2023/09/10 04:29:43;;;;;;;11.80;6.13;;;;;;;20.81;92.36;100988.91;5048644;28;20024;-67
2023/09/10 04:32:08;;;;;;;15.18;6.93;;;;;;;20.89;92.57;100993.09;5030445;28;20025;-68
2023/09/10 04:34:34;;;;;;;15.45;7.22;;;;;;;20.95;92.86;100993.38;5031194;28;20024;-68
2023/09/10 04:37:02;;;;;;;19.00;9.05;;;;;;;20.98;93.15;100989.84;5029143;28;20032;-68
2023/09/10 04:39:27;;;;;;;19.08;8.48;;;;;;;21.05;93.54;100998.72;5025868;28;20111;-68
2023/09/10 04:41:53;;;;;;;18.48;8.82;;;;;;;21.11;93.49;101004.50;5027593;28;20036;-64
2023/09/10 04:44:20;;;;;;;18.42;8.95;;;;;;;21.08;93.27;100997.88;5029418;28;20029;-67
2023/09/10 04:46:46;;;;;;;18.67;9.05;;;;;;;21.06;93.79;101005.75;5046149;28;20017;-68
2023/09/10 04:49:12;;;;;;;21.52;9.65;;;;;;;21.07;94.11;100999.09;5043074;28;20045;-66
2023/09/10 04:51:37;;;;;;;18.70;9.68;;;;;;;21.07;94.08;101009.28;5023606;28;20032;-63
2023/09/10 04:54:03;;;;;;;24.63;9.95;;;;;;;21.06;94.27;101003.00;5024011;28;20024;-66
2023/09/10 04:56:31;;;;;;;17.75;8.80;;;;;;;21.04;94.46;101008.13;5018698;28;20174;-67
2023/09/10 04:58:57;;;;;;;22.88;9.73;;;;;;;21.01;94.96;100997.25;5020188;28;20118;-67
2023/09/10 05:01:23;;;;;;;19.73;9.52;;;;;;;21.03;94.94;101006.59;5029270;28;20070;-65
2023/09/10 05:03:48;;;;;;;18.15;9.75;;;;;;;21.09;94.71;101004.16;5027591;28;20032;-68
2023/09/10 05:06:14;;;;;;;19.92;9.57;;;;;;;21.04;95.46;101002.66;5027914;28;20520;-64
2023/09/10 05:09:02;;;;;;;22.60;9.65;;;;;;;21.07;95.66;101001.06;5043418;28;20044;-65
2023/09/10 05:11:28;;;;;;;24.08;10.35;;;;;;;21.15;95.27;100997.78;4937201;29;20043;-65
2023/09/10 05:13:54;;;;;;;22.38;10.68;;;;;;;21.14;95.39;100998.19;4923003;29;20078;-67
2023/09/10 05:16:19;;;;;;;26.60;10.10;;;;;;;21.11;96.31;100999.81;4938109;28;20055;-68
2023/09/10 05:18:47;;;;;;;27.20;10.13;;;;;;;21.11;96.57;101002.53;4944694;28;20538;-66
2023/09/10 05:21:13;;;;;;;26.42;11.23;;;;;;;21.13;96.76;101004.88;4941918;28;20432;-67
2023/09/10 05:23:39;;;;;;;26.13;10.88;;;;;;;21.07;97.54;101003.78;4949539;29;20039;-64
2023/09/10 05:26:05;;;;;;;27.38;11.27;;;;;;;21.17;96.69;101006.34;4941874;29;20044;-65
2023/09/10 05:28:31;;;;;;;21.52;9.35;;;;;;;21.16;97.08;101015.75;4943188;29;20039;-65
2023/09/10 05:31:02;;;;;;;25.42;10.93;;;;;;;21.18;97.28;101004.38;4932759;29;20434;-65
2023/09/10 05:33:27;;;;;;;;;;;;;;;21.25;97.17;101013.25;4938195;28;20031;-67
2023/09/10 05:35:56;;;;;;;23.58;10.48;;;;;;;21.34;97.21;101016.22;4932709;29;19995;-65
2023/09/10 05:38:23;;;;;;;21.52;10.07;;;;;;;21.36;97.25;101029.50;4922382;29;20035;-64
2023/09/10 05:40:49;;;;;;;22.08;10.27;;;;;;;21.38;97.52;101027.91;4933804;29;20118;-67
2023/09/10 05:43:15;;;;;;;23.23;10.35;;;;;;;21.44;96.83;101033.66;4947045;29;20121;-64
2023/09/10 05:45:41;;;;;;;27.17;11.25;;;;;;;21.47;96.36;101032.81;4946439;28;20027;-65
2023/09/10 05:48:06;;;;;;;29.33;10.50;;;;;;;21.44;96.82;101028.97;4972128;28;20044;-68
2023/09/10 05:50:32;;;;;;;26.15;10.80;;;;;;;21.45;96.38;101029.72;5029815;28;20485;-64
2023/09/10 05:52:59;;;;;;;23.45;10.68;;;;;;;21.46;96.28;101040.28;5027264;28;20119;-65
2023/09/10 05:55:26;;;;;;;26.80;12.07;;;;;;;21.46;97.08;101043.03;5024545;28;20091;-65
2023/09/10 05:57:53;;;;;;;27.38;11.95;;;;;;;21.49;96.88;101036.69;5031539;28;20048;-64
2023/09/10 06:00:19;;;;;;;28.95;11.65;;;;;;;21.50;97.25;101037.47;5015267;28;20470;-70
2023/09/10 06:02:48;;;;;;;32.75;13.80;;;;;;;21.56;96.85;101044.78;5023762;28;20059;-65
2023/09/10 06:05:13;;;;;;;31.42;12.75;;;;;;;21.56;96.74;101046.78;5028320;28;20029;-69
2023/09/10 06:07:39;;;;;;;29.27;11.70;;;;;;;21.55;96.82;101056.19;5030594;28;20036;-67
2023/09/10 06:10:08;;;;;;;24.88;10.95;;;;;;;21.57;96.44;101056.53;5029283;28;20404;-65
2023/09/10 06:12:38;;;;;;;27.55;10.93;;;;;;;21.56;96.26;101065.97;5029137;28;20030;-66
2023/09/10 06:15:05;;;;;;;25.42;11.00;;;;;;;21.55;96.80;101064.41;5025081;28;20029;-64
2023/09/10 06:17:32;;;;;;;23.85;11.25;;;;;;;21.58;96.75;101064.34;5032010;28;20063;-65
2023/09/10 06:20:02;;;;;;;30.42;12.23;;;;;;;21.66;96.29;101072.44;5026248;28;20024;-66
2023/09/10 06:22:28;;;;;;;32.57;11.73;;;;;;;21.64;96.34;101061.13;5028545;28;20047;-69
2023/09/10 06:24:54;;;;;;;28.15;11.52;;;;;;;21.65;96.00;101071.66;5047623;28;20029;-67
2023/09/10 06:27:19;;;;;;;21.48;11.25;;;;;;;21.66;95.77;101069.72;5025578;28;20166;-64
2023/09/10 06:29:45;;;;;;;28.17;10.82;;;;;;;21.63;95.52;101070.53;5033202;28;20035;-64
2023/09/10 06:32:11;;;;;;;26.13;11.13;;;;;;;21.60;95.41;101085.88;5034172;28;20021;-65
2023/09/10 06:34:37;;;;;;;26.30;10.77;;;;;;;21.63;95.58;101090.50;5036286;28;20037;-64
2023/09/10 06:37:03;;;;;;;22.60;9.50;;;;;;;21.65;95.48;101077.16;5031108;28;20063;-66
2023/09/10 06:39:29;;;;;;;24.27;9.23;;;;;;;21.67;95.63;101084.94;5016706;28;20025;-65
2023/09/10 06:41:55;;;;;;;23.73;10.40;;;;;;;21.67;95.19;101091.22;5030927;28;20028;-64
2023/09/10 06:44:23;;;;;;;22.33;9.52;;;;;;;21.67;95.11;101082.22;5032617;28;20508;-65
2023/09/10 06:46:48;;;;;;;22.50;9.55;;;;;;;21.63;95.29;101081.50;5028324;28;20108;-65
2023/09/10 06:49:13;;;;;;;23.75;8.68;;;;;;;21.66;95.27;101075.19;5051625;28;20521;-64
2023/09/10 06:51:41;;;;;;;22.70;9.55;;;;;;;21.68;95.22;101078.28;5049711;28;20040;-65
2023/09/10 06:54:07;;;;;;;20.30;8.93;;;;;;;21.67;95.53;101082.22;5049122;28;20029;-66
2023/09/10 06:56:32;;;;;;;18.63;8.90;;;;;;;21.67;94.97;101082.22;5053570;28;20041;-64
2023/09/10 06:58:58;;;;;;;24.08;8.90;;;;;;;21.71;95.26;101074.69;5053199;28;20041;-64
2023/09/10 07:01:23;;;;;;;18.67;8.52;;;;;;;21.73;94.70;101080.53;5050887;28;20408;-67
2023/09/10 07:03:52;;;;;;;18.33;9.18;;;;;;;21.78;94.80;101082.78;5050660;28;20040;-64
2023/09/10 07:06:17;;;;;;;16.92;8.25;;;;;;;21.81;94.88;101090.22;5047015;28;20541;-65
2023/09/10 07:08:43;;;;;;;18.90;8.52;;;;;;;21.85;94.48;101093.66;5053030;28;20100;-67
2023/09/10 07:11:08;;;;;;;18.38;9.00;;;;;;;21.87;94.47;101091.28;5048972;28;20053;-65
2023/09/10 07:13:36;;;;;;;23.75;9.27;;;;;;;21.90;94.26;101090.44;5051655;28;20068;-65
2023/09/10 07:16:02;;;;;;;21.08;8.95;;;;;;;21.92;93.96;101090.78;5053394;28;20021;-65
2023/09/10 07:18:32;;;;;;;20.05;8.48;;;;;;;21.93;94.02;101095.09;5052684;28;20037;-66
2023/09/10 07:21:02;;;;;;;18.58;8.80;;;;;;;21.89;93.24;101089.66;5052849;28;20040;-65
2023/09/10 07:23:28;;;;;;;21.67;9.63;;;;;;;21.91;93.53;101094.72;5015931;28;20528;-68
2023/09/10 07:25:54;;;;;;;21.63;9.27;;;;;;;21.92;93.82;101099.00;5029069;28;20107;-65
2023/09/10 07:28:20;;;;;;;24.42;8.98;;;;;;;21.96;94.22;101099.72;5047771;28;20027;-67
2023/09/10 07:30:45;;;;;;;20.33;8.57;;;;;;;21.99;93.39;101105.13;5051821;28;20460;-65
2023/09/10 07:33:10;;;;;;;23.02;9.00;;;;;;;22.03;93.50;101100.34;5033154;28;20039;-65
2023/09/10 07:35:36;;;;;;;19.98;7.57;;;;;;;22.08;93.27;101110.06;5028034;28;20527;-66
2023/09/10 07:38:01;;;;;;;21.80;9.50;;;;;;;22.16;93.57;101108.75;5026278;28;20047;-65
2023/09/10 07:40:27;;;;;;;23.30;9.20;;;;;;;22.17;92.74;101113.81;5052592;28;20032;-67
2023/09/10 07:42:53;;;;;;;24.00;9.30;;;;;;;22.20;92.37;101114.94;5051015;28;20024;-66
2023/09/10 07:45:18;;;;;;;26.73;9.18;;;;;;;22.24;92.36;101119.13;5016771;28;20040;-71
2023/09/10 07:47:44;;;;;;;23.70;9.82;;;;;;;22.26;91.36;101130.47;5048228;28;20033;-65
2023/09/10 07:50:09;;;;;;;28.98;10.25;;;;;;;22.27;91.66;101121.06;5050027;28;20041;-65
2023/09/10 07:52:35;;;;;;;22.10;8.55;;;;;;;22.32;91.52;101128.00;5048990;28;20021;-65
2023/09/10 07:55:00;;;;;;;21.42;8.38;;;;;;;22.35;91.70;101138.16;5050542;28;20033;-64
2023/09/10 07:57:25;;;;;;;21.00;9.25;;;;;;;22.41;91.80;101137.22;5030724;28;20045;-64
2023/09/10 07:59:51;;;;;;;20.80;8.68;;;;;;;22.43;91.71;101134.81;5034652;28;20027;-65
2023/09/10 08:02:17;;;;;;;28.73;10.30;;;;;;;22.47;91.58;101134.00;5029893;28;20504;-68
2023/09/10 08:04:43;;;;;;;24.08;7.55;;;;;;;22.52;91.51;101126.03;5045269;28;20094;-64
2023/09/10 08:07:10;;;;;;;31.02;8.98;;;;;;;22.56;90.76;101125.94;5050972;28;20025;-74
2023/09/10 08:09:37;;;;;;;20.95;8.88;;;;;;;22.53;90.52;101133.06;5051358;28;20116;-67
2023/09/10 08:12:03;;;;;;;23.92;8.60;;;;;;;22.58;90.57;101135.34;5050923;28;20035;-66
2023/09/10 08:14:29;;;;;;;26.00;8.88;;;;;;;22.59;90.23;101141.63;5048520;28;20053;-65
2023/09/10 08:16:55;;;;;;;23.20;9.07;;;;;;;22.56;90.44;101134.19;5027756;28;20060;-65
2023/09/10 08:19:20;;;;;;;25.05;8.98;;;;;;;22.57;90.47;101133.03;5033988;28;20041;-64
2023/09/10 08:21:46;;;;;;;22.40;7.68;;;;;;;22.60;90.29;101137.66;5027036;28;20041;-68
2023/09/10 08:24:11;;;;;;;22.27;8.23;;;;;;;22.68;90.04;101147.31;5049564;28;20025;-65
2023/09/10 08:26:36;;;;;;;22.52;8.32;;;;;;;22.63;89.84;101145.06;5047949;28;20044;-64
2023/09/10 08:29:02;;;;;;;25.95;8.55;;;;;;;22.65;89.76;101148.91;5033986;28;20057;-65
2023/09/10 08:31:28;;;;;;;30.02;9.32;;;;;;;22.67;90.08;101146.53;5032621;28;20029;-67
2023/09/10 08:33:53;;;;;;;19.02;7.22;;;;;;;22.69;90.23;101143.34;5050329;28;20036;-64
2023/09/10 08:36:19;;;;;;;24.75;8.50;;;;;;;22.79;89.91;101148.63;5050666;28;20387;-65
2023/09/10 08:38:44;;;;;;;19.27;7.75;;;;;;;22.79;89.44;101142.34;5045499;28;20132;-66
2023/09/10 08:41:24;;;;;;;21.88;7.88;;;;;;;22.72;89.72;101143.28;5049302;28;20389;-66
2023/09/10 08:43:57;;;;;;;26.00;8.43;;;;;;;22.69;89.72;101141.38;5029515;28;20536;-64
2023/09/10 08:46:29;;;;;;;28.63;9.43;;;;;;;22.73;89.65;101144.81;5048122;28;20112;-68
2023/09/10 08:48:56;;;;;;;25.90;8.13;;;;;;;22.75;89.61;101144.41;5028429;28;20135;-65
2023/09/10 08:51:22;;;;;;;29.27;8.65;;;;;;;22.75;89.48;101145.16;5048831;28;20531;-65
2023/09/10 08:53:48;;;;;;;19.70;8.32;;;;;;;22.80;89.52;101150.16;5047309;28;20032;-65
2023/09/10 08:56:14;;;;;;;23.92;8.80;;;;;;;22.81;89.47;101150.94;5049563;28;20038;-64
2023/09/10 08:58:43;;;;;;;28.83;8.63;;;;;;;22.87;89.52;101154.72;5050597;28;20463;-66
2023/09/10 09:01:09;;;;;;;20.40;7.50;;;;;;;22.93;88.90;101156.56;5050959;28;20041;-65
2023/09/10 09:03:35;;;;;;;21.67;8.27;;;;;;;22.97;88.47;101150.97;5043884;28;20025;-64
2023/09/10 09:06:05;;;;;;;23.70;8.30;;;;;;;22.95;88.54;101150.63;5031250;28;20096;-64
2023/09/10 09:08:35;;;;;;;24.38;8.95;;;;;;;22.95;88.01;101151.41;5020527;28;20033;-65
2023/09/10 09:11:03;;;;;;;21.05;7.28;;;;;;;22.96;88.33;101150.19;5032757;28;20106;-69
2023/09/10 09:13:33;;;;;;;32.03;8.07;;;;;;;22.95;88.26;101147.88;5030012;28;20075;-65
2023/09/10 09:16:00;;;;;;;28.38;8.48;;;;;;;22.92;87.99;101155.00;5045612;28;20032;-64
2023/09/10 09:18:28;;;;;;;22.02;7.75;;;;;;;22.91;88.20;101152.69;5051060;28;20060;-67
2023/09/10 09:20:58;;;;;;;18.73;7.15;;;;;;;22.91;88.39;101158.97;5029365;28;20067;-67
2023/09/10 09:23:41;;;;;;;22.40;8.13;;;;;;;22.93;88.23;101164.81;5045002;28;20494;-66
2023/09/10 09:26:07;;;;;;;15.70;7.03;;;;;;;22.96;88.14;101169.44;5048826;28;20405;-66
2023/09/10 09:28:33;;;;;;;17.75;6.95;;;;;;;22.97;87.54;101173.75;5050894;28;20041;-65
2023/09/10 09:30:59;;;;;;;14.77;6.20;;;;;;;23.01;87.23;101179.94;5048987;28;20047;-64
2023/09/10 09:33:25;;;;;;;15.93;6.35;;;;;;;23.00;86.83;101170.13;5042462;28;20497;-66
2023/09/10 09:35:51;;;;;;;18.25;7.07;;;;;;;23.06;86.92;101165.69;5050064;28;20042;-67
2023/09/10 09:38:16;;;;;;;20.35;7.25;;;;;;;23.11;86.90;101176.16;5049821;28;20072;-66
2023/09/10 09:40:43;;;;;;;21.50;7.60;;;;;;;23.14;86.88;101172.56;5032673;28;20056;-66
2023/09/10 09:43:11;;;;;;;22.42;7.15;;;;;;;23.22;86.70;101173.94;5049847;28;20041;-66
2023/09/10 09:45:38;;;;;;;19.85;7.20;;;;;;;23.26;86.03;101179.38;5032137;28;20079;-66
2023/09/10 09:48:04;;;;;;;22.50;7.05;;;;;;;23.29;85.94;101179.28;5050491;28;20024;-65
2023/09/10 09:50:30;;;;;;;20.20;6.88;;;;;;;23.30;85.80;101175.34;5030095;28;20103;-66
2023/09/10 09:52:56;;;;;;;20.38;7.72;;;;;;;23.33;86.15;101167.44;5047986;28;20505;-65
2023/09/10 09:55:22;;;;;;;22.77;7.45;;;;;;;23.36;86.26;101169.34;5050323;28;20041;-66
2023/09/10 09:57:51;;;;;;;17.15;7.30;;;;;;;23.40;86.12;101175.53;5028509;28;20032;-66
2023/09/10 10:00:17;;;;;;;15.75;6.63;;;;;;;23.46;85.68;101174.56;5012544;28;20094;-66
2023/09/10 10:02:46;;;;;;;23.20;7.45;;;;;;;23.50;84.99;101172.50;5048762;28;20141;-66
2023/09/10 10:05:12;;;;;;;19.27;6.47;;;;;;;23.60;84.95;101173.44;5049569;28;20040;-66
2023/09/10 10:07:40;;;;;;;19.75;6.85;;;;;;;23.66;85.14;101172.50;5049408;28;20033;-66
2023/09/10 10:10:15;;;;;;;19.80;8.00;;;;;;;23.80;84.40;101168.63;5050655;28;20033;-66
2023/09/10 10:12:44;;;;;;;24.10;8.02;;;;;;;23.87;83.88;101173.94;5051249;28;20029;-66
2023/09/10 10:15:10;;;;;;;22.10;8.40;;;;;;;23.95;83.21;101165.06;5050426;28;20073;-67
2023/09/10 10:17:38;;;;;;;18.85;6.60;;;;;;;24.04;82.82;101165.25;5046699;28;20484;-66
2023/09/10 10:20:06;;;;;;;16.60;6.93;;;;;;;24.17;82.25;101165.31;5048586;28;20029;-66
2023/09/10 10:22:33;;;;;;;18.85;7.18;;;;;;;24.32;81.46;101171.19;5010470;28;20108;-67
2023/09/10 10:24:59;;;;;;;21.50;7.13;;;;;;;24.38;80.20;101156.47;5031537;28;20028;-66
2023/09/10 10:27:25;;;;;;;15.55;5.97;;;;;;;24.46;79.45;101155.06;5044963;28;20037;-65
2023/09/10 10:29:51;;;;;;;20.08;7.30;;;;;;;24.63;78.71;101151.00;5041443;28;20045;-67
2023/09/10 10:32:32;;;;;;;16.58;7.15;;;;;;;24.86;77.80;101144.44;5047746;28;20044;-66
2023/09/10 10:35:05;;;;;;;16.80;6.25;;;;;;;24.98;76.99;101144.44;5048477;28;20029;-66
2023/09/10 10:37:30;;;;;;;23.25;7.38;;;;;;;25.14;76.14;101142.78;5031784;28;20037;-69
2023/09/10 10:40:11;;;;;;;18.42;6.53;;;;;;;25.23;75.64;101140.91;5048827;28;20637;-66
2023/09/10 10:42:59;;;;;;;10.43;5.40;;;;;;;25.29;74.05;101138.34;5026352;28;20465;-67
2023/09/10 10:45:25;;;;;;;12.43;5.78;;;;;;;25.52;73.84;101138.78;5024754;28;20794;-68
2023/09/10 10:47:52;;;;;;;14.35;5.25;;;;;;;25.66;73.32;101141.06;5043476;28;20029;-66
2023/09/10 10:50:30;;;;;;;18.77;6.18;;;;;;;25.80;71.39;101137.06;5028365;28;20033;-66
2023/09/10 10:53:15;;;;;;;14.88;5.20;;;;;;;25.92;70.92;101138.97;5042903;28;20063;-66
2023/09/10 10:55:41;;;;;;;12.05;5.55;;;;;;;25.98;70.05;101137.19;5045338;28;20033;-66
2023/09/10 10:58:28;;;;;;;13.15;5.82;;;;;;;26.09;69.21;101137.63;5041450;22;20554;-56
2023/09/10 11:00:57;;;;;;;13.55;5.30;;;;;;;26.18;69.48;101142.44;4941894;28;20055;-57
2023/09/10 11:03:24;;;;;;;13.48;5.53;;;;;;;26.23;68.81;101128.81;4929808;28;20070;-55
2023/09/10 11:05:53;;;;;;;18.02;6.53;;;;;;;26.33;67.76;101130.41;4935172;28;20046;-56
2023/09/10 11:08:31;;;;;;;14.35;5.40;;;;;;;26.33;69.72;101127.66;4938165;28;20044;-53
2023/09/10 11:11:17;;;;;;;13.48;6.03;;;;;;;26.54;68.57;101134.38;4933031;28;20043;-57
2023/09/10 11:14:03;;;;;;;12.32;5.97;;;;;;;26.67;66.58;101129.53;4923855;29;20047;-57
2023/09/10 11:16:32;;;;;;;11.32;4.57;;;;;;;26.89;66.42;101127.50;4924131;29;20048;-56
2023/09/10 11:19:02;;;;;;;13.65;6.10;;;;;;;27.08;64.60;101120.81;4923899;29;20477;-53
2023/09/10 11:21:53;;;;;;;12.68;4.82;;;;;;;27.08;62.88;101122.81;5023549;22;20056;-73